sensor_id;sensor_type;location;lat;lon;timestamp;P1;durP1;ratioP1;P2;durP2;ratioP2
62479;SDS011;48526;48.846;2.322;2023-07-31T00:01:52;3.50;;;2.00;;
62479;SDS011;48526;48.846;2.322;2023-07-31T00:04:17;5.00;;;2.50;;
62479;SDS011;48526;48.846;2.322;2023-07-31T00:06:43;2.75;;;2.75;;
62479;SDS011;48526;48.846;2.322;2023-07-31T00:09:08;5.50;;;3.00;;
62479;SDS011;48526;48.846;2.322;2023-07-31T00:11:34;5.75;;;5.25;;
62479;SDS011;48526;48.846;2.322;2023-07-31T00:13:59;1.50;;;1.50;;
62479;SDS011;48526;48.846;2.322;2023-07-31T00:16:24;3.25;;;2.50;;
62479;SDS011;48526;48.846;2.322;2023-07-31T00:18:50;1.50;;;1.50;;
62479;SDS011;48526;48.846;2.322;2023-07-31T00:21:15;2.25;;;2.25;;
62479;SDS011;48526;48.846;2.322;2023-07-31T00:23:40;3.33;;;3.00;;
62479;SDS011;48526;48.846;2.322;2023-07-31T00:26:06;4.00;;;3.25;;
62479;SDS011;48526;48.846;2.322;2023-07-31T00:28:31;2.25;;;2.25;;
62479;SDS011;48526;48.846;2.322;2023-07-31T00:30:56;3.25;;;2.25;;
62479;SDS011;48526;48.846;2.322;2023-07-31T00:33:22;2.00;;;2.00;;
62479;SDS011;48526;48.846;2.322;2023-07-31T00:35:48;4.50;;;4.00;;
62479;SDS011;48526;48.846;2.322;2023-07-31T00:38:13;3.75;;;3.75;;
62479;SDS011;48526;48.846;2.322;2023-07-31T00:40:38;3.00;;;2.00;;
62479;SDS011;48526;48.846;2.322;2023-07-31T00:43:04;4.50;;;4.50;;
62479;SDS011;48526;48.846;2.322;2023-07-31T00:45:29;3.00;;;3.00;;
62479;SDS011;48526;48.846;2.322;2023-07-31T00:47:55;6.00;;;3.75;;
62479;SDS011;48526;48.846;2.322;2023-07-31T00:50:22;3.00;;;2.25;;
62479;SDS011;48526;48.846;2.322;2023-07-31T00:52:49;2.75;;;2.75;;
62479;SDS011;48526;48.846;2.322;2023-07-31T00:55:15;2.00;;;2.00;;
62479;SDS011;48526;48.846;2.322;2023-07-31T00:57:40;5.00;;;3.00;;
62479;SDS011;48526;48.846;2.322;2023-07-31T01:00:06;5.00;;;3.25;;
62479;SDS011;48526;48.846;2.322;2023-07-31T01:02:32;1.50;;;1.50;;
62479;SDS011;48526;48.846;2.322;2023-07-31T01:04:58;2.00;;;2.00;;
62479;SDS011;48526;48.846;2.322;2023-07-31T01:12:36;3.50;;;3.50;;
62479;SDS011;48526;48.846;2.322;2023-07-31T01:17:29;4.25;;;2.50;;
62479;SDS011;48526;48.846;2.322;2023-07-31T01:19:55;2.75;;;2.00;;
62479;SDS011;48526;48.846;2.322;2023-07-31T01:28:14;4.00;;;4.00;;
62479;SDS011;48526;48.846;2.322;2023-07-31T01:30:46;2.75;;;2.50;;
62479;SDS011;48526;48.846;2.322;2023-07-31T01:33:13;3.00;;;2.75;;
62479;SDS011;48526;48.846;2.322;2023-07-31T01:35:42;3.25;;;3.00;;
62479;SDS011;48526;48.846;2.322;2023-07-31T01:38:09;2.25;;;2.00;;
62479;SDS011;48526;48.846;2.322;2023-07-31T01:40:34;3.75;;;3.75;;
62479;SDS011;48526;48.846;2.322;2023-07-31T01:42:59;3.00;;;3.00;;
62479;SDS011;48526;48.846;2.322;2023-07-31T01:45:25;2.75;;;2.50;;
62479;SDS011;48526;48.846;2.322;2023-07-31T01:47:50;2.00;;;2.00;;
62479;SDS011;48526;48.846;2.322;2023-07-31T01:50:16;5.00;;;3.00;;
62479;SDS011;48526;48.846;2.322;2023-07-31T01:52:41;4.00;;;4.00;;
62479;SDS011;48526;48.846;2.322;2023-07-31T01:55:06;2.00;;;2.00;;
62479;SDS011;48526;48.846;2.322;2023-07-31T01:57:32;3.00;;;1.75;;
62479;SDS011;48526;48.846;2.322;2023-07-31T01:59:57;3.25;;;2.00;;
62479;SDS011;48526;48.846;2.322;2023-07-31T02:02:23;3.25;;;2.00;;
62479;SDS011;48526;48.846;2.322;2023-07-31T02:04:48;2.25;;;1.25;;
62479;SDS011;48526;48.846;2.322;2023-07-31T02:07:14;4.00;;;3.50;;
62479;SDS011;48526;48.846;2.322;2023-07-31T02:09:39;2.00;;;1.50;;
62479;SDS011;48526;48.846;2.322;2023-07-31T02:12:05;5.25;;;3.50;;
62479;SDS011;48526;48.846;2.322;2023-07-31T02:14:30;2.50;;;2.00;;
62479;SDS011;48526;48.846;2.322;2023-07-31T02:16:55;6.25;;;4.25;;
62479;SDS011;48526;48.846;2.322;2023-07-31T02:19:21;3.25;;;2.50;;
62479;SDS011;48526;48.846;2.322;2023-07-31T02:21:46;4.50;;;2.50;;
62479;SDS011;48526;48.846;2.322;2023-07-31T02:24:11;2.00;;;2.00;;
62479;SDS011;48526;48.846;2.322;2023-07-31T02:26:37;4.25;;;2.25;;
62479;SDS011;48526;48.846;2.322;2023-07-31T02:29:02;3.00;;;3.00;;
62479;SDS011;48526;48.846;2.322;2023-07-31T02:31:28;1.25;;;1.25;;
62479;SDS011;48526;48.846;2.322;2023-07-31T02:33:53;3.75;;;1.75;;
62479;SDS011;48526;48.846;2.322;2023-07-31T02:36:18;2.50;;;1.50;;
62479;SDS011;48526;48.846;2.322;2023-07-31T02:38:44;2.00;;;2.00;;
62479;SDS011;48526;48.846;2.322;2023-07-31T02:41:09;1.00;;;1.00;;
62479;SDS011;48526;48.846;2.322;2023-07-31T02:43:34;2.25;;;2.25;;
62479;SDS011;48526;48.846;2.322;2023-07-31T02:46:00;1.25;;;1.00;;
62479;SDS011;48526;48.846;2.322;2023-07-31T02:48:25;2.00;;;1.50;;
62479;SDS011;48526;48.846;2.322;2023-07-31T02:50:51;2.50;;;1.25;;
62479;SDS011;48526;48.846;2.322;2023-07-31T02:53:16;1.50;;;1.50;;
62479;SDS011;48526;48.846;2.322;2023-07-31T02:55:41;3.00;;;1.00;;
62479;SDS011;48526;48.846;2.322;2023-07-31T02:58:07;1.50;;;1.50;;
62479;SDS011;48526;48.846;2.322;2023-07-31T03:00:32;1.75;;;1.00;;
62479;SDS011;48526;48.846;2.322;2023-07-31T03:02:57;3.00;;;3.00;;
62479;SDS011;48526;48.846;2.322;2023-07-31T03:05:23;2.00;;;1.25;;
62479;SDS011;48526;48.846;2.322;2023-07-31T03:07:48;2.00;;;2.00;;
62479;SDS011;48526;48.846;2.322;2023-07-31T03:10:13;1.00;;;1.00;;
62479;SDS011;48526;48.846;2.322;2023-07-31T03:12:40;1.00;;;1.00;;
62479;SDS011;48526;48.846;2.322;2023-07-31T03:15:05;2.75;;;1.00;;
62479;SDS011;48526;48.846;2.322;2023-07-31T03:17:31;2.25;;;1.25;;
62479;SDS011;48526;48.846;2.322;2023-07-31T03:19:56;1.25;;;1.25;;
62479;SDS011;48526;48.846;2.322;2023-07-31T03:22:24;3.00;;;1.00;;
62479;SDS011;48526;48.846;2.322;2023-07-31T03:24:50;1.00;;;1.00;;
62479;SDS011;48526;48.846;2.322;2023-07-31T03:27:15;2.00;;;2.00;;
62479;SDS011;48526;48.846;2.322;2023-07-31T03:29:40;2.00;;;2.00;;
62479;SDS011;48526;48.846;2.322;2023-07-31T03:32:06;1.50;;;1.50;;
62479;SDS011;48526;48.846;2.322;2023-07-31T03:34:31;2.25;;;2.00;;
62479;SDS011;48526;48.846;2.322;2023-07-31T03:36:57;1.25;;;1.25;;
62479;SDS011;48526;48.846;2.322;2023-07-31T03:39:23;2.25;;;1.25;;
62479;SDS011;48526;48.846;2.322;2023-07-31T03:41:48;1.25;;;1.25;;
62479;SDS011;48526;48.846;2.322;2023-07-31T03:44:14;3.00;;;2.00;;
62479;SDS011;48526;48.846;2.322;2023-07-31T03:46:39;3.00;;;2.00;;
62479;SDS011;48526;48.846;2.322;2023-07-31T03:49:04;3.00;;;2.00;;
62479;SDS011;48526;48.846;2.322;2023-07-31T03:51:30;3.25;;;3.25;;
62479;SDS011;48526;48.846;2.322;2023-07-31T03:53:55;1.25;;;1.25;;
62479;SDS011;48526;48.846;2.322;2023-07-31T03:56:20;6.00;;;2.25;;
62479;SDS011;48526;48.846;2.322;2023-07-31T03:58:46;3.25;;;2.00;;
62479;SDS011;48526;48.846;2.322;2023-07-31T04:01:11;1.00;;;1.00;;
62479;SDS011;48526;48.846;2.322;2023-07-31T04:03:36;4.00;;;3.00;;
62479;SDS011;48526;48.846;2.322;2023-07-31T04:06:02;2.75;;;2.25;;
62479;SDS011;48526;48.846;2.322;2023-07-31T04:08:27;0.75;;;0.75;;
62479;SDS011;48526;48.846;2.322;2023-07-31T04:10:53;5.00;;;1.25;;
62479;SDS011;48526;48.846;2.322;2023-07-31T04:13:18;1.50;;;1.50;;
62479;SDS011;48526;48.846;2.322;2023-07-31T04:15:47;3.00;;;3.00;;
62479;SDS011;48526;48.846;2.322;2023-07-31T04:18:14;3.00;;;1.25;;
62479;SDS011;48526;48.846;2.322;2023-07-31T04:20:40;2.00;;;2.00;;
62479;SDS011;48526;48.846;2.322;2023-07-31T04:23:05;1.00;;;1.00;;
62479;SDS011;48526;48.846;2.322;2023-07-31T04:25:31;2.00;;;1.00;;
62479;SDS011;48526;48.846;2.322;2023-07-31T04:27:56;3.00;;;2.50;;
62479;SDS011;48526;48.846;2.322;2023-07-31T04:30:22;5.00;;;2.25;;
62479;SDS011;48526;48.846;2.322;2023-07-31T04:32:47;1.75;;;1.75;;
62479;SDS011;48526;48.846;2.322;2023-07-31T04:35:12;1.00;;;1.00;;
62479;SDS011;48526;48.846;2.322;2023-07-31T04:37:38;2.50;;;2.50;;
62479;SDS011;48526;48.846;2.322;2023-07-31T04:40:03;2.75;;;2.00;;
62479;SDS011;48526;48.846;2.322;2023-07-31T04:42:29;2.50;;;2.50;;
62479;SDS011;48526;48.846;2.322;2023-07-31T04:44:54;2.00;;;2.00;;
62479;SDS011;48526;48.846;2.322;2023-07-31T04:47:19;2.50;;;1.50;;
62479;SDS011;48526;48.846;2.322;2023-07-31T04:49:45;2.50;;;2.50;;
62479;SDS011;48526;48.846;2.322;2023-07-31T04:52:10;4.50;;;2.50;;
62479;SDS011;48526;48.846;2.322;2023-07-31T04:54:36;6.25;;;3.75;;
62479;SDS011;48526;48.846;2.322;2023-07-31T04:57:01;4.25;;;3.00;;
62479;SDS011;48526;48.846;2.322;2023-07-31T04:59:26;3.25;;;2.25;;
62479;SDS011;48526;48.846;2.322;2023-07-31T05:01:52;3.50;;;2.00;;
62479;SDS011;48526;48.846;2.322;2023-07-31T05:04:17;3.00;;;3.00;;
62479;SDS011;48526;48.846;2.322;2023-07-31T05:06:43;4.25;;;2.75;;
62479;SDS011;48526;48.846;2.322;2023-07-31T05:09:08;6.50;;;3.75;;
62479;SDS011;48526;48.846;2.322;2023-07-31T05:11:36;3.75;;;3.00;;
62479;SDS011;48526;48.846;2.322;2023-07-31T05:14:02;3.00;;;3.00;;
62479;SDS011;48526;48.846;2.322;2023-07-31T05:16:27;2.75;;;2.75;;
62479;SDS011;48526;48.846;2.322;2023-07-31T05:18:52;3.75;;;3.75;;
62479;SDS011;48526;48.846;2.322;2023-07-31T05:21:18;5.75;;;4.50;;
62479;SDS011;48526;48.846;2.322;2023-07-31T05:23:43;3.75;;;3.25;;
62479;SDS011;48526;48.846;2.322;2023-07-31T05:26:08;8.25;;;5.75;;
62479;SDS011;48526;48.846;2.322;2023-07-31T05:28:38;3.50;;;3.00;;
62479;SDS011;48526;48.846;2.322;2023-07-31T05:31:04;3.00;;;3.00;;
62479;SDS011;48526;48.846;2.322;2023-07-31T05:33:30;3.00;;;3.00;;
62479;SDS011;48526;48.846;2.322;2023-07-31T05:35:55;7.25;;;5.00;;
62479;SDS011;48526;48.846;2.322;2023-07-31T05:38:21;4.00;;;4.00;;
62479;SDS011;48526;48.846;2.322;2023-07-31T05:40:46;4.00;;;3.75;;
62479;SDS011;48526;48.846;2.322;2023-07-31T05:43:12;5.00;;;4.00;;
62479;SDS011;48526;48.846;2.322;2023-07-31T05:45:37;5.50;;;4.50;;
62479;SDS011;48526;48.846;2.322;2023-07-31T05:48:03;6.75;;;5.00;;
62479;SDS011;48526;48.846;2.322;2023-07-31T05:50:29;5.50;;;4.50;;
62479;SDS011;48526;48.846;2.322;2023-07-31T05:52:55;7.75;;;5.00;;
62479;SDS011;48526;48.846;2.322;2023-07-31T05:55:20;7.75;;;7.50;;
62479;SDS011;48526;48.846;2.322;2023-07-31T05:57:46;4.75;;;4.75;;
62479;SDS011;48526;48.846;2.322;2023-07-31T06:00:11;4.00;;;3.00;;
62479;SDS011;48526;48.846;2.322;2023-07-31T06:02:38;5.50;;;4.75;;
62479;SDS011;48526;48.846;2.322;2023-07-31T06:05:03;9.00;;;5.00;;
62479;SDS011;48526;48.846;2.322;2023-07-31T06:07:30;8.75;;;6.50;;
62479;SDS011;48526;48.846;2.322;2023-07-31T06:09:56;4.00;;;4.00;;
62479;SDS011;48526;48.846;2.322;2023-07-31T06:12:26;5.75;;;5.00;;
62479;SDS011;48526;48.846;2.322;2023-07-31T06:14:52;7.50;;;4.00;;
62479;SDS011;48526;48.846;2.322;2023-07-31T06:17:17;10.50;;;7.00;;
62479;SDS011;48526;48.846;2.322;2023-07-31T06:19:43;7.75;;;5.25;;
62479;SDS011;48526;48.846;2.322;2023-07-31T06:22:08;5.25;;;4.00;;
62479;SDS011;48526;48.846;2.322;2023-07-31T06:24:34;7.50;;;6.00;;
62479;SDS011;48526;48.846;2.322;2023-07-31T06:26:59;8.50;;;4.25;;
62479;SDS011;48526;48.846;2.322;2023-07-31T06:29:25;7.50;;;6.50;;
62479;SDS011;48526;48.846;2.322;2023-07-31T06:31:50;5.50;;;4.50;;
62479;SDS011;48526;48.846;2.322;2023-07-31T06:34:15;6.75;;;6.25;;
62479;SDS011;48526;48.846;2.322;2023-07-31T06:36:41;7.00;;;5.75;;
62479;SDS011;48526;48.846;2.322;2023-07-31T06:39:06;5.00;;;5.00;;
62479;SDS011;48526;48.846;2.322;2023-07-31T06:41:32;6.50;;;6.50;;
62479;SDS011;48526;48.846;2.322;2023-07-31T06:43:57;7.00;;;5.00;;
62479;SDS011;48526;48.846;2.322;2023-07-31T06:46:22;8.25;;;6.75;;
62479;SDS011;48526;48.846;2.322;2023-07-31T06:48:48;8.75;;;4.75;;
62479;SDS011;48526;48.846;2.322;2023-07-31T06:51:14;4.50;;;4.50;;
62479;SDS011;48526;48.846;2.322;2023-07-31T06:53:39;8.75;;;6.00;;
62479;SDS011;48526;48.846;2.322;2023-07-31T06:56:05;5.25;;;5.00;;
62479;SDS011;48526;48.846;2.322;2023-07-31T06:58:30;4.50;;;4.25;;
62479;SDS011;48526;48.846;2.322;2023-07-31T07:00:55;6.00;;;6.00;;
62479;SDS011;48526;48.846;2.322;2023-07-31T07:03:21;7.75;;;6.50;;
62479;SDS011;48526;48.846;2.322;2023-07-31T07:05:46;8.00;;;6.75;;
62479;SDS011;48526;48.846;2.322;2023-07-31T07:08:12;8.25;;;7.00;;
62479;SDS011;48526;48.846;2.322;2023-07-31T07:10:37;5.50;;;5.50;;
62479;SDS011;48526;48.846;2.322;2023-07-31T07:13:02;6.75;;;4.75;;
62479;SDS011;48526;48.846;2.322;2023-07-31T07:15:28;7.25;;;7.25;;
62479;SDS011;48526;48.846;2.322;2023-07-31T07:17:55;7.25;;;6.25;;
62479;SDS011;48526;48.846;2.322;2023-07-31T07:20:20;6.50;;;6.25;;
62479;SDS011;48526;48.846;2.322;2023-07-31T07:22:45;8.25;;;7.00;;
62479;SDS011;48526;48.846;2.322;2023-07-31T07:25:11;7.00;;;6.75;;
62479;SDS011;48526;48.846;2.322;2023-07-31T07:27:36;7.25;;;6.00;;
62479;SDS011;48526;48.846;2.322;2023-07-31T07:30:02;6.00;;;6.00;;
62479;SDS011;48526;48.846;2.322;2023-07-31T07:32:27;6.50;;;5.00;;
62479;SDS011;48526;48.846;2.322;2023-07-31T07:34:53;6.00;;;6.00;;
62479;SDS011;48526;48.846;2.322;2023-07-31T07:37:18;8.25;;;5.00;;
62479;SDS011;48526;48.846;2.322;2023-07-31T07:39:44;5.50;;;4.00;;
62479;SDS011;48526;48.846;2.322;2023-07-31T07:42:09;6.00;;;6.00;;
62479;SDS011;48526;48.846;2.322;2023-07-31T07:44:35;6.00;;;6.00;;
62479;SDS011;48526;48.846;2.322;2023-07-31T07:47:00;3.75;;;2.25;;
62479;SDS011;48526;48.846;2.322;2023-07-31T07:49:25;11.25;;;8.25;;
62479;SDS011;48526;48.846;2.322;2023-07-31T07:51:51;7.50;;;7.00;;
62479;SDS011;48526;48.846;2.322;2023-07-31T07:54:16;5.00;;;5.00;;
62479;SDS011;48526;48.846;2.322;2023-07-31T07:56:42;6.00;;;4.25;;
62479;SDS011;48526;48.846;2.322;2023-07-31T07:59:07;5.50;;;5.50;;
62479;SDS011;48526;48.846;2.322;2023-07-31T08:01:33;8.00;;;6.00;;
62479;SDS011;48526;48.846;2.322;2023-07-31T08:03:58;9.00;;;7.75;;
62479;SDS011;48526;48.846;2.322;2023-07-31T08:06:24;5.00;;;5.00;;
62479;SDS011;48526;48.846;2.322;2023-07-31T08:08:49;7.25;;;5.50;;
62479;SDS011;48526;48.846;2.322;2023-07-31T08:11:15;8.50;;;6.00;;
62479;SDS011;48526;48.846;2.322;2023-07-31T08:13:42;6.00;;;5.75;;
62479;SDS011;48526;48.846;2.322;2023-07-31T08:16:07;4.00;;;4.00;;
62479;SDS011;48526;48.846;2.322;2023-07-31T08:18:34;5.50;;;4.75;;
62479;SDS011;48526;48.846;2.322;2023-07-31T08:21:01;6.50;;;4.75;;
62479;SDS011;48526;48.846;2.322;2023-07-31T08:23:27;5.75;;;4.50;;
62479;SDS011;48526;48.846;2.322;2023-07-31T08:25:52;5.75;;;5.75;;
62479;SDS011;48526;48.846;2.322;2023-07-31T08:28:18;7.50;;;5.50;;
62479;SDS011;48526;48.846;2.322;2023-07-31T08:30:43;7.00;;;6.00;;
62479;SDS011;48526;48.846;2.322;2023-07-31T08:33:08;6.75;;;5.50;;
62479;SDS011;48526;48.846;2.322;2023-07-31T08:35:34;5.25;;;4.50;;
62479;SDS011;48526;48.846;2.322;2023-07-31T08:37:59;4.50;;;4.00;;
62479;SDS011;48526;48.846;2.322;2023-07-31T08:40:25;6.25;;;4.25;;
62479;SDS011;48526;48.846;2.322;2023-07-31T08:42:52;10.00;;;5.00;;
62479;SDS011;48526;48.846;2.322;2023-07-31T08:45:19;5.75;;;5.00;;
62479;SDS011;48526;48.846;2.322;2023-07-31T08:47:46;12.00;;;6.00;;
62479;SDS011;48526;48.846;2.322;2023-07-31T08:50:16;7.50;;;7.00;;
62479;SDS011;48526;48.846;2.322;2023-07-31T08:52:42;8.00;;;6.00;;
62479;SDS011;48526;48.846;2.322;2023-07-31T08:55:08;7.00;;;5.00;;
62479;SDS011;48526;48.846;2.322;2023-07-31T08:57:34;6.00;;;5.00;;
62479;SDS011;48526;48.846;2.322;2023-07-31T09:00:00;4.00;;;3.25;;
62479;SDS011;48526;48.846;2.322;2023-07-31T09:02:26;4.00;;;4.00;;
62479;SDS011;48526;48.846;2.322;2023-07-31T09:04:58;6.25;;;5.50;;
62479;SDS011;48526;48.846;2.322;2023-07-31T09:07:24;4.00;;;3.25;;
62479;SDS011;48526;48.846;2.322;2023-07-31T09:09:50;7.50;;;6.75;;
62479;SDS011;48526;48.846;2.322;2023-07-31T09:12:15;6.00;;;4.50;;
62479;SDS011;48526;48.846;2.322;2023-07-31T09:14:41;7.00;;;5.25;;
62479;SDS011;48526;48.846;2.322;2023-07-31T09:17:07;5.25;;;4.25;;
62479;SDS011;48526;48.846;2.322;2023-07-31T09:19:33;4.25;;;3.50;;
62479;SDS011;48526;48.846;2.322;2023-07-31T09:21:59;5.25;;;4.00;;
62479;SDS011;48526;48.846;2.322;2023-07-31T09:24:26;6.25;;;5.00;;
62479;SDS011;48526;48.846;2.322;2023-07-31T09:26:55;10.00;;;6.50;;
62479;SDS011;48526;48.846;2.322;2023-07-31T09:29:23;6.00;;;5.50;;
62479;SDS011;48526;48.846;2.322;2023-07-31T09:31:49;4.25;;;3.50;;
62479;SDS011;48526;48.846;2.322;2023-07-31T09:34:15;7.00;;;4.75;;
62479;SDS011;48526;48.846;2.322;2023-07-31T09:36:44;4.50;;;3.00;;
62479;SDS011;48526;48.846;2.322;2023-07-31T09:39:11;7.50;;;6.25;;
62479;SDS011;48526;48.846;2.322;2023-07-31T09:41:47;6.00;;;5.00;;
62479;SDS011;48526;48.846;2.322;2023-07-31T09:44:19;9.00;;;5.50;;
62479;SDS011;48526;48.846;2.322;2023-07-31T09:46:45;6.75;;;5.25;;
62479;SDS011;48526;48.846;2.322;2023-07-31T09:49:11;6.25;;;6.00;;
62479;SDS011;48526;48.846;2.322;2023-07-31T09:51:38;4.25;;;4.25;;
62479;SDS011;48526;48.846;2.322;2023-07-31T09:54:08;8.00;;;6.25;;
62479;SDS011;48526;48.846;2.322;2023-07-31T09:56:35;6.00;;;6.00;;
62479;SDS011;48526;48.846;2.322;2023-07-31T09:59:01;8.00;;;6.75;;
62479;SDS011;48526;48.846;2.322;2023-07-31T10:01:29;6.50;;;5.00;;
62479;SDS011;48526;48.846;2.322;2023-07-31T10:03:54;7.75;;;6.25;;
62479;SDS011;48526;48.846;2.322;2023-07-31T10:06:20;5.75;;;5.00;;
62479;SDS011;48526;48.846;2.322;2023-07-31T10:08:48;4.75;;;4.75;;
62479;SDS011;48526;48.846;2.322;2023-07-31T10:11:16;4.00;;;4.00;;
62479;SDS011;48526;48.846;2.322;2023-07-31T10:13:42;8.50;;;5.50;;
62479;SDS011;48526;48.846;2.322;2023-07-31T10:16:08;6.75;;;4.50;;
62479;SDS011;48526;48.846;2.322;2023-07-31T10:18:33;7.25;;;5.25;;
62479;SDS011;48526;48.846;2.322;2023-07-31T10:21:00;9.75;;;9.25;;
62479;SDS011;48526;48.846;2.322;2023-07-31T10:23:26;5.50;;;5.25;;
62479;SDS011;48526;48.846;2.322;2023-07-31T10:25:52;5.75;;;5.75;;
62479;SDS011;48526;48.846;2.322;2023-07-31T10:28:19;9.00;;;7.00;;
62479;SDS011;48526;48.846;2.322;2023-07-31T10:30:45;9.25;;;5.00;;
62479;SDS011;48526;48.846;2.322;2023-07-31T10:33:11;7.75;;;6.50;;
62479;SDS011;48526;48.846;2.322;2023-07-31T10:35:36;6.00;;;6.00;;
62479;SDS011;48526;48.846;2.322;2023-07-31T10:38:11;8.50;;;7.50;;
62479;SDS011;48526;48.846;2.322;2023-07-31T10:40:37;6.50;;;6.50;;
62479;SDS011;48526;48.846;2.322;2023-07-31T10:43:03;6.75;;;6.50;;
62479;SDS011;48526;48.846;2.322;2023-07-31T10:45:39;7.00;;;5.25;;
62479;SDS011;48526;48.846;2.322;2023-07-31T10:48:12;11.00;;;9.25;;
62479;SDS011;48526;48.846;2.322;2023-07-31T10:50:40;9.50;;;8.00;;
62479;SDS011;48526;48.846;2.322;2023-07-31T10:53:22;6.25;;;5.50;;
62479;SDS011;48526;48.846;2.322;2023-07-31T10:55:49;6.00;;;6.00;;
62479;SDS011;48526;48.846;2.322;2023-07-31T10:58:17;8.25;;;7.50;;
62479;SDS011;48526;48.846;2.322;2023-07-31T11:00:44;5.00;;;5.00;;
62479;SDS011;48526;48.846;2.322;2023-07-31T11:03:10;5.50;;;5.50;;
62479;SDS011;48526;48.846;2.322;2023-07-31T11:05:45;8.75;;;7.00;;
62479;SDS011;48526;48.846;2.322;2023-07-31T11:10:45;6.50;;;5.25;;
62479;SDS011;48526;48.846;2.322;2023-07-31T11:13:11;6.25;;;5.75;;
62479;SDS011;48526;48.846;2.322;2023-07-31T11:15:36;7.25;;;5.50;;
62479;SDS011;48526;48.846;2.322;2023-07-31T11:18:01;7.00;;;5.25;;
62479;SDS011;48526;48.846;2.322;2023-07-31T11:20:33;5.50;;;5.25;;
62479;SDS011;48526;48.846;2.322;2023-07-31T11:23:00;11.00;;;7.75;;
62479;SDS011;48526;48.846;2.322;2023-07-31T11:25:28;8.25;;;6.75;;
62479;SDS011;48526;48.846;2.322;2023-07-31T11:27:56;9.25;;;8.00;;
62479;SDS011;48526;48.846;2.322;2023-07-31T11:30:22;5.50;;;4.75;;
62479;SDS011;48526;48.846;2.322;2023-07-31T11:32:47;8.00;;;7.00;;
62479;SDS011;48526;48.846;2.322;2023-07-31T11:35:13;6.75;;;6.75;;
62479;SDS011;48526;48.846;2.322;2023-07-31T11:37:42;9.50;;;7.00;;
62479;SDS011;48526;48.846;2.322;2023-07-31T11:40:08;10.75;;;8.00;;
62479;SDS011;48526;48.846;2.322;2023-07-31T11:42:37;7.50;;;5.75;;
62479;SDS011;48526;48.846;2.322;2023-07-31T11:45:05;6.50;;;6.00;;
62479;SDS011;48526;48.846;2.322;2023-07-31T11:47:33;5.00;;;5.00;;
62479;SDS011;48526;48.846;2.322;2023-07-31T11:50:05;10.00;;;6.25;;
62479;SDS011;48526;48.846;2.322;2023-07-31T11:52:36;7.00;;;7.00;;
62479;SDS011;48526;48.846;2.322;2023-07-31T11:55:04;8.25;;;8.00;;
62479;SDS011;48526;48.846;2.322;2023-07-31T11:57:31;11.25;;;8.00;;
62479;SDS011;48526;48.846;2.322;2023-07-31T11:59:57;7.00;;;6.50;;
62479;SDS011;48526;48.846;2.322;2023-07-31T12:02:23;8.50;;;6.75;;
62479;SDS011;48526;48.846;2.322;2023-07-31T12:04:48;6.00;;;5.50;;
62479;SDS011;48526;48.846;2.322;2023-07-31T12:07:14;8.25;;;4.75;;
62479;SDS011;48526;48.846;2.322;2023-07-31T12:09:50;6.00;;;5.50;;
62479;SDS011;48526;48.846;2.322;2023-07-31T12:12:19;7.00;;;7.00;;
62479;SDS011;48526;48.846;2.322;2023-07-31T12:14:48;7.75;;;5.50;;
62479;SDS011;48526;48.846;2.322;2023-07-31T12:17:17;4.50;;;4.50;;
62479;SDS011;48526;48.846;2.322;2023-07-31T12:19:45;5.75;;;5.50;;
62479;SDS011;48526;48.846;2.322;2023-07-31T12:22:11;7.25;;;6.75;;
62479;SDS011;48526;48.846;2.322;2023-07-31T12:24:41;5.50;;;4.00;;
62479;SDS011;48526;48.846;2.322;2023-07-31T12:27:10;5.50;;;5.50;;
62479;SDS011;48526;48.846;2.322;2023-07-31T12:29:37;4.50;;;4.50;;
62479;SDS011;48526;48.846;2.322;2023-07-31T12:32:03;5.00;;;4.75;;
62479;SDS011;48526;48.846;2.322;2023-07-31T12:34:28;4.50;;;4.50;;
62479;SDS011;48526;48.846;2.322;2023-07-31T12:36:54;7.00;;;5.75;;
62479;SDS011;48526;48.846;2.322;2023-07-31T12:39:19;6.75;;;6.75;;
62479;SDS011;48526;48.846;2.322;2023-07-31T12:41:45;11.00;;;7.00;;
62479;SDS011;48526;48.846;2.322;2023-07-31T12:44:10;7.75;;;7.75;;
62479;SDS011;48526;48.846;2.322;2023-07-31T12:46:39;7.00;;;5.50;;
62479;SDS011;48526;48.846;2.322;2023-07-31T12:49:04;7.50;;;5.50;;
62479;SDS011;48526;48.846;2.322;2023-07-31T12:51:30;6.25;;;4.75;;
62479;SDS011;48526;48.846;2.322;2023-07-31T12:53:55;6.50;;;6.50;;
62479;SDS011;48526;48.846;2.322;2023-07-31T12:56:20;8.50;;;8.00;;
62479;SDS011;48526;48.846;2.322;2023-07-31T12:58:46;8.75;;;7.75;;
62479;SDS011;48526;48.846;2.322;2023-07-31T13:01:11;7.50;;;5.75;;
62479;SDS011;48526;48.846;2.322;2023-07-31T13:03:37;5.50;;;4.50;;
62479;SDS011;48526;48.846;2.322;2023-07-31T13:06:03;5.75;;;5.25;;
62479;SDS011;48526;48.846;2.322;2023-07-31T13:08:28;8.50;;;7.50;;
62479;SDS011;48526;48.846;2.322;2023-07-31T13:10:53;6.50;;;6.50;;
62479;SDS011;48526;48.846;2.322;2023-07-31T13:13:19;9.25;;;6.25;;
62479;SDS011;48526;48.846;2.322;2023-07-31T13:15:44;7.75;;;6.00;;
62479;SDS011;48526;48.846;2.322;2023-07-31T13:18:10;3.50;;;3.00;;
62479;SDS011;48526;48.846;2.322;2023-07-31T13:20:35;7.00;;;6.75;;
62479;SDS011;48526;48.846;2.322;2023-07-31T13:23:01;5.50;;;4.25;;
62479;SDS011;48526;48.846;2.322;2023-07-31T13:25:26;6.00;;;5.25;;
62479;SDS011;48526;48.846;2.322;2023-07-31T13:27:52;6.25;;;4.50;;
62479;SDS011;48526;48.846;2.322;2023-07-31T13:30:17;8.50;;;6.50;;
62479;SDS011;48526;48.846;2.322;2023-07-31T13:32:43;6.25;;;5.50;;
62479;SDS011;48526;48.846;2.322;2023-07-31T13:35:08;7.50;;;6.00;;
62479;SDS011;48526;48.846;2.322;2023-07-31T13:37:36;5.00;;;5.00;;
62479;SDS011;48526;48.846;2.322;2023-07-31T13:40:02;2.00;;;2.00;;
62479;SDS011;48526;48.846;2.322;2023-07-31T13:42:29;7.75;;;6.75;;
62479;SDS011;48526;48.846;2.322;2023-07-31T13:44:56;3.75;;;3.75;;
62479;SDS011;48526;48.846;2.322;2023-07-31T13:47:21;5.75;;;3.75;;
62479;SDS011;48526;48.846;2.322;2023-07-31T13:49:48;4.25;;;4.25;;
62479;SDS011;48526;48.846;2.322;2023-07-31T13:52:14;6.75;;;4.00;;
62479;SDS011;48526;48.846;2.322;2023-07-31T13:54:40;6.25;;;6.00;;
62479;SDS011;48526;48.846;2.322;2023-07-31T13:57:05;3.50;;;2.00;;
62479;SDS011;48526;48.846;2.322;2023-07-31T13:59:31;6.00;;;4.25;;
62479;SDS011;48526;48.846;2.322;2023-07-31T14:01:56;5.25;;;5.25;;
62479;SDS011;48526;48.846;2.322;2023-07-31T14:04:21;3.75;;;3.00;;
62479;SDS011;48526;48.846;2.322;2023-07-31T14:06:47;5.00;;;5.00;;
62479;SDS011;48526;48.846;2.322;2023-07-31T14:09:15;4.50;;;3.50;;
62479;SDS011;48526;48.846;2.322;2023-07-31T14:11:40;3.50;;;1.75;;
62479;SDS011;48526;48.846;2.322;2023-07-31T14:14:06;3.75;;;3.75;;
62479;SDS011;48526;48.846;2.322;2023-07-31T14:16:31;4.75;;;4.25;;
62479;SDS011;48526;48.846;2.322;2023-07-31T14:18:57;3.25;;;2.75;;
62479;SDS011;48526;48.846;2.322;2023-07-31T14:21:24;5.00;;;4.50;;
62479;SDS011;48526;48.846;2.322;2023-07-31T14:23:50;2.75;;;2.75;;
62479;SDS011;48526;48.846;2.322;2023-07-31T14:26:17;4.00;;;4.00;;
62479;SDS011;48526;48.846;2.322;2023-07-31T14:28:42;3.25;;;3.25;;
62479;SDS011;48526;48.846;2.322;2023-07-31T14:31:07;5.75;;;4.75;;
62479;SDS011;48526;48.846;2.322;2023-07-31T14:33:33;9.00;;;5.25;;
62479;SDS011;48526;48.846;2.322;2023-07-31T14:35:58;4.50;;;4.50;;
62479;SDS011;48526;48.846;2.322;2023-07-31T14:38:24;4.00;;;4.00;;
62479;SDS011;48526;48.846;2.322;2023-07-31T14:40:49;6.25;;;4.25;;
62479;SDS011;48526;48.846;2.322;2023-07-31T14:43:15;5.75;;;4.00;;
62479;SDS011;48526;48.846;2.322;2023-07-31T14:45:41;7.00;;;7.00;;
62479;SDS011;48526;48.846;2.322;2023-07-31T14:48:06;4.25;;;4.25;;
62479;SDS011;48526;48.846;2.322;2023-07-31T14:50:32;3.50;;;3.50;;
62479;SDS011;48526;48.846;2.322;2023-07-31T14:52:57;3.50;;;3.50;;
62479;SDS011;48526;48.846;2.322;2023-07-31T14:55:23;9.00;;;6.50;;
62479;SDS011;48526;48.846;2.322;2023-07-31T14:57:48;10.25;;;8.50;;